GEC6767 LTFM-OMDB
Flight info
| Callsign | GEC6767 |
|---|---|
| Flight time | N/A |
| Altitude | 33000 |
| Route | VICE1D VICEN DCT VEVUD UT341 BAG UL614 OTKEP UM688 RATVO DCT SIDAD P975 SESRU M677 VUTEB VUTE4D |
| Aircraft | MD11/H-SDE1E2E3FGHIJ2J3J4J5M1RWXY/LB1D1 |
Departure
| Time | 2026-05-05 17:55 |
|---|---|
| Airport | İstanbul Airport (LTFM) |
Arrival
| Time | N/A |
|---|---|
| Airport | Dubai International Airport (OMDB) |
| Time | Latitude | Longitude | Altitude | Speed | Heading |
|---|---|---|---|---|---|
| 2026-05-05 17:08 | 41.26893 | 28.72141 | 338 ft | 0 kts | 359° |
| 2026-05-05 17:40 | 41.26882 | 28.72142 | 338 ft | 2 kts | 359° |
| 2026-05-05 17:40 | 41.26867 | 28.72140 | 338 ft | 2 kts | 14° |
| 2026-05-05 17:40 | 41.26853 | 28.72133 | 338 ft | 2 kts | 29° |
| 2026-05-05 17:41 | 41.26841 | 28.72122 | 338 ft | 2 kts | 43° |
| 2026-05-05 17:41 | 41.26831 | 28.72107 | 338 ft | 2 kts | 58° |
| 2026-05-05 17:41 | 41.26825 | 28.72090 | 338 ft | 2 kts | 72° |
| 2026-05-05 17:41 | 41.26821 | 28.72070 | 338 ft | 2 kts | 86° |
| 2026-05-05 17:42 | 41.26821 | 28.72060 | 338 ft | 1 kts | 93° |
| 2026-05-05 17:42 | 41.26821 | 28.72058 | 338 ft | 0 kts | 92° |
| 2026-05-05 17:49 | 41.26821 | 28.72062 | 338 ft | 1 kts | 92° |
| 2026-05-05 17:49 | 41.26820 | 28.72085 | 338 ft | 3 kts | 93° |
| 2026-05-05 17:49 | 41.26814 | 28.72122 | 338 ft | 5 kts | 107° |
| 2026-05-05 17:50 | 41.26803 | 28.72185 | 338 ft | 8 kts | 98° |
| 2026-05-05 17:50 | 41.26786 | 28.72248 | 338 ft | 6 kts | 126° |
| 2026-05-05 17:50 | 41.26744 | 28.72282 | 338 ft | 8 kts | 165° |
| 2026-05-05 17:50 | 41.26677 | 28.72294 | 338 ft | 12 kts | 173° |
| 2026-05-05 17:51 | 41.26583 | 28.72296 | 338 ft | 15 kts | 182° |
| 2026-05-05 17:51 | 41.26464 | 28.72296 | 338 ft | 19 kts | 180° |
| 2026-05-05 17:51 | 41.26311 | 28.72298 | 338 ft | 24 kts | 180° |
| 2026-05-05 17:51 | 41.26222 | 28.72349 | 338 ft | 8 kts | 99° |
| 2026-05-05 17:52 | 41.26222 | 28.72353 | 338 ft | 0 kts | 91° |
| 2026-05-05 17:53 | 41.26221 | 28.72368 | 338 ft | 3 kts | 95° |
| 2026-05-05 17:53 | 41.26218 | 28.72431 | 338 ft | 9 kts | 90° |
| 2026-05-05 17:53 | 41.26232 | 28.72489 | 338 ft | 5 kts | 47° |
| 2026-05-05 17:54 | 41.26248 | 28.72502 | 338 ft | 2 kts | 18° |
| 2026-05-05 17:54 | 41.26281 | 28.72514 | 338 ft | 3 kts | 7° |
| 2026-05-05 17:54 | 41.26286 | 28.72514 | 338 ft | 2 kts | 4° |
| 2026-05-05 17:54 | 41.26442 | 28.72514 | 338 ft | 51 kts | 358° |
| 2026-05-05 17:55 | 41.27008 | 28.72505 | 338 ft | 110 kts | 359° |
| 2026-05-05 17:55 | 41.27970 | 28.72479 | 339 ft | 163 kts | 358° |
| 2026-05-05 17:55 | 41.29255 | 28.72428 | 403 ft | 199 kts | 0° |
| 2026-05-05 17:55 | 41.30654 | 28.72416 | 953 ft | 201 kts | 1° |
| 2026-05-05 17:56 | 41.32019 | 28.72430 | 1849 ft | 201 kts | 2° |
| 2026-05-05 17:56 | 41.33404 | 28.72459 | 2828 ft | 207 kts | 2° |
| 2026-05-05 17:56 | 41.34839 | 28.72484 | 3795 ft | 213 kts | 1° |
| 2026-05-05 17:56 | 41.36370 | 28.72012 | 4012 ft | 247 kts | 329° |
| 2026-05-05 17:57 | 41.37640 | 28.70367 | 4739 ft | 264 kts | 306° |
| 2026-05-05 17:57 | 41.38378 | 28.68052 | 5119 ft | 280 kts | 283° |
| 2026-05-05 17:57 | 41.38474 | 28.65476 | 4934 ft | 276 kts | 271° |
| 2026-05-05 17:57 | 41.38347 | 28.62919 | 4927 ft | 280 kts | 270° |
| 2026-05-05 17:58 | 41.38159 | 28.60322 | 4955 ft | 286 kts | 263° |
| 2026-05-05 17:58 | 41.37518 | 28.57825 | 4931 ft | 287 kts | 242° |
| 2026-05-05 17:58 | 41.36185 | 28.55817 | 5422 ft | 298 kts | 215° |
| 2026-05-05 17:58 | 41.34314 | 28.54729 | 6478 ft | 302 kts | 192° |
| 2026-05-05 17:59 | 41.32163 | 28.54569 | 7081 ft | 314 kts | 176° |
| 2026-05-05 17:59 | 41.30037 | 28.54779 | 8141 ft | 312 kts | 175° |
| 2026-05-05 17:59 | 41.27820 | 28.55007 | 8873 ft | 322 kts | 176° |
| 2026-05-05 17:59 | 41.25656 | 28.55417 | 9841 ft | 320 kts | 162° |
| 2026-05-05 18:00 | 41.23584 | 28.56622 | 10295 ft | 337 kts | 142° |
| 2026-05-05 18:00 | 41.21760 | 28.58731 | 10550 ft | 358 kts | 131° |
| 2026-05-05 18:00 | 41.19993 | 28.61191 | 10979 ft | 379 kts | 130° |
| 2026-05-05 18:00 | 41.18759 | 28.62919 | 11175 ft | 396 kts | 131° |
| 2026-05-05 18:01 | 41.16101 | 28.66531 | 11722 ft | 424 kts | 132° |
| 2026-05-05 18:01 | 41.13985 | 28.69329 | 12253 ft | 438 kts | 131° |
| 2026-05-05 18:01 | 41.11986 | 28.72391 | 13297 ft | 436 kts | 124° |
| 2026-05-05 18:01 | 41.10257 | 28.75704 | 14214 ft | 439 kts | 120° |
| 2026-05-05 18:02 | 41.08631 | 28.79103 | 15091 ft | 442 kts | 118° |
| 2026-05-05 18:02 | 41.07333 | 28.82788 | 15850 ft | 443 kts | 108° |
| 2026-05-05 18:02 | 41.06317 | 28.86611 | 16640 ft | 448 kts | 106° |
| 2026-05-05 18:02 | 41.05304 | 28.90554 | 17443 ft | 454 kts | 107° |
| 2026-05-05 18:03 | 41.04250 | 28.94491 | 18249 ft | 459 kts | 108° |
| 2026-05-05 18:03 | 41.03141 | 28.98458 | 19077 ft | 464 kts | 109° |
| 2026-05-05 18:03 | 41.01999 | 29.02464 | 19900 ft | 468 kts | 109° |
| 2026-05-05 18:03 | 41.00843 | 29.06492 | 20711 ft | 471 kts | 109° |
| 2026-05-05 18:04 | 40.99675 | 29.10560 | 21454 ft | 476 kts | 109° |
| 2026-05-05 18:04 | 40.98511 | 29.14617 | 22224 ft | 480 kts | 109° |
| 2026-05-05 18:04 | 40.97317 | 29.18785 | 22971 ft | 484 kts | 109° |
| 2026-05-05 18:04 | 40.96132 | 29.22934 | 23685 ft | 489 kts | 108° |
| 2026-05-05 18:05 | 40.94923 | 29.27176 | 23949 ft | 491 kts | 108° |
| 2026-05-05 18:05 | 40.93731 | 29.31362 | 23977 ft | 488 kts | 108° |
| 2026-05-05 18:05 | 40.92545 | 29.35537 | 24031 ft | 489 kts | 108° |
| 2026-05-05 18:05 | 40.91348 | 29.39764 | 24042 ft | 491 kts | 108° |
| 2026-05-05 18:06 | 40.90161 | 29.43969 | 24030 ft | 491 kts | 108° |
| 2026-05-05 18:06 | 40.89758 | 29.45395 | 24010 ft | 491 kts | 108° |
| 2026-05-05 18:06 | 40.87778 | 29.52396 | 24059 ft | 492 kts | 108° |
| 2026-05-05 18:06 | 40.86597 | 29.56627 | 24012 ft | 492 kts | 108° |
| 2026-05-05 18:07 | 40.85432 | 29.60811 | 23993 ft | 490 kts | 108° |
| 2026-05-05 18:07 | 40.84236 | 29.65080 | 23999 ft | 491 kts | 108° |
| 2026-05-05 18:07 | 40.83056 | 29.69267 | 24016 ft | 492 kts | 108° |
| 2026-05-05 18:07 | 40.81869 | 29.73496 | 24041 ft | 491 kts | 108° |
| 2026-05-05 18:08 | 40.80681 | 29.77764 | 24056 ft | 494 kts | 108° |
| 2026-05-05 18:08 | 40.79510 | 29.81951 | 23999 ft | 493 kts | 108° |
| 2026-05-05 18:08 | 40.78301 | 29.86192 | 23983 ft | 491 kts | 109° |
| 2026-05-05 18:08 | 40.77056 | 29.90387 | 24054 ft | 493 kts | 109° |
| 2026-05-05 18:09 | 40.75784 | 29.94617 | 24215 ft | 497 kts | 109° |
| 2026-05-05 18:09 | 40.74525 | 29.98800 | 25109 ft | 496 kts | 109° |
| 2026-05-05 18:09 | 40.73248 | 30.03056 | 25578 ft | 505 kts | 109° |
| 2026-05-05 18:09 | 40.71956 | 30.07379 | 26343 ft | 508 kts | 109° |
| 2026-05-05 18:10 | 40.70666 | 30.11717 | 27028 ft | 512 kts | 109° |
| 2026-05-05 18:10 | 40.69372 | 30.16084 | 27882 ft | 512 kts | 108° |
| 2026-05-05 18:10 | 40.68081 | 30.20445 | 28957 ft | 508 kts | 108° |
| 2026-05-05 18:10 | 40.66798 | 30.24790 | 29903 ft | 506 kts | 108° |
| 2026-05-05 18:11 | 40.65523 | 30.29107 | 30802 ft | 504 kts | 108° |
| 2026-05-05 18:11 | 40.64271 | 30.33353 | 31568 ft | 503 kts | 108° |
| 2026-05-05 18:11 | 40.63006 | 30.37643 | 32268 ft | 503 kts | 108° |
| 2026-05-05 18:11 | 40.61754 | 30.41898 | 32910 ft | 504 kts | 108° |
| 2026-05-05 18:12 | 40.60490 | 30.46198 | 33106 ft | 506 kts | 108° |
| 2026-05-05 18:12 | 40.57982 | 30.54746 | 33124 ft | 495 kts | 108° |
| 2026-05-05 18:13 | 40.55510 | 30.63169 | 33165 ft | 500 kts | 108° |
| 2026-05-05 18:13 | 40.53030 | 30.71727 | 33118 ft | 500 kts | 108° |
| 2026-05-05 18:14 | 40.50553 | 30.80235 | 33125 ft | 501 kts | 108° |
| 2026-05-05 18:14 | 40.48045 | 30.88773 | 33125 ft | 501 kts | 109° |
| 2026-05-05 18:15 | 40.45453 | 30.97255 | 33130 ft | 503 kts | 109° |
| 2026-05-05 18:15 | 40.42873 | 31.05784 | 33144 ft | 504 kts | 108° |
| 2026-05-05 18:16 | 40.40291 | 31.14399 | 33141 ft | 504 kts | 108° |
| 2026-05-05 18:16 | 40.38044 | 31.23087 | 33138 ft | 500 kts | 102° |
| 2026-05-05 18:17 | 40.36498 | 31.31989 | 33154 ft | 500 kts | 98° |
| 2026-05-05 18:17 | 40.35051 | 31.40917 | 33118 ft | 499 kts | 98° |
| 2026-05-05 18:18 | 40.33547 | 31.49900 | 33129 ft | 501 kts | 98° |
| 2026-05-05 18:18 | 40.32049 | 31.58843 | 33126 ft | 501 kts | 98° |
| 2026-05-05 18:19 | 40.30555 | 31.67828 | 33120 ft | 502 kts | 99° |
| 2026-05-05 18:19 | 40.29079 | 31.76808 | 33129 ft | 503 kts | 98° |
| 2026-05-05 18:20 | 40.27618 | 31.85794 | 33123 ft | 502 kts | 98° |
| 2026-05-05 18:20 | 40.26000 | 31.94740 | 33138 ft | 505 kts | 102° |
| 2026-05-05 18:21 | 40.24030 | 32.03650 | 33128 ft | 505 kts | 103° |
| 2026-05-05 18:21 | 40.22034 | 32.12470 | 33127 ft | 506 kts | 102° |
| 2026-05-05 18:22 | 40.20063 | 32.21366 | 33129 ft | 506 kts | 102° |
| 2026-05-05 18:22 | 40.18100 | 32.30227 | 33121 ft | 508 kts | 102° |
| 2026-05-05 18:23 | 40.16107 | 32.39188 | 33128 ft | 510 kts | 102° |
| 2026-05-05 18:23 | 40.14146 | 32.48116 | 33114 ft | 508 kts | 102° |
| 2026-05-05 18:24 | 40.12184 | 32.57053 | 33115 ft | 510 kts | 102° |
| 2026-05-05 18:24 | 40.10226 | 32.65977 | 33107 ft | 510 kts | 102° |
| 2026-05-05 18:25 | 40.08276 | 32.74925 | 33103 ft | 511 kts | 102° |
| 2026-05-05 18:25 | 40.06163 | 32.83741 | 33099 ft | 516 kts | 106° |
| 2026-05-05 18:26 | 40.03596 | 32.92504 | 33089 ft | 517 kts | 108° |
| 2026-05-05 18:26 | 40.00967 | 33.01182 | 33091 ft | 516 kts | 108° |
| 2026-05-05 18:27 | 39.98373 | 33.09916 | 33072 ft | 517 kts | 108° |
| 2026-05-05 18:27 | 39.95749 | 33.18682 | 33056 ft | 516 kts | 108° |
| 2026-05-05 18:28 | 39.91836 | 33.31810 | 33043 ft | 516 kts | 108° |
| 2026-05-05 18:28 | 39.89257 | 33.40494 | 33023 ft | 515 kts | 108° |
| 2026-05-05 18:29 | 39.86666 | 33.49217 | 33002 ft | 517 kts | 107° |
| 2026-05-05 18:29 | 39.84132 | 33.57965 | 33028 ft | 517 kts | 105° |
| 2026-05-05 18:30 | 39.82037 | 33.66838 | 32999 ft | 515 kts | 101° |
| 2026-05-05 18:30 | 39.80269 | 33.75779 | 33027 ft | 514 kts | 101° |
| 2026-05-05 18:31 | 39.78437 | 33.84719 | 33003 ft | 514 kts | 103° |
| 2026-05-05 18:31 | 39.76257 | 33.93571 | 33039 ft | 518 kts | 107° |
| 2026-05-05 18:32 | 39.73739 | 34.02329 | 33029 ft | 517 kts | 108° |
| 2026-05-05 18:32 | 39.71207 | 34.11122 | 33011 ft | 519 kts | 107° |
| 2026-05-05 18:33 | 39.68725 | 34.19899 | 33011 ft | 517 kts | 107° |
| 2026-05-05 18:33 | 39.66227 | 34.28642 | 33044 ft | 518 kts | 107° |
| 2026-05-05 18:34 | 39.63733 | 34.37420 | 33035 ft | 518 kts | 107° |
| 2026-05-05 18:34 | 39.61227 | 34.46245 | 33013 ft | 518 kts | 107° |
| 2026-05-05 18:35 | 39.58669 | 34.54926 | 33037 ft | 519 kts | 108° |
| 2026-05-05 18:35 | 39.56086 | 34.63650 | 33009 ft | 518 kts | 108° |
| 2026-05-05 18:36 | 39.53530 | 34.72385 | 33026 ft | 520 kts | 108° |
| 2026-05-05 18:36 | 39.50975 | 34.81101 | 33020 ft | 519 kts | 108° |
| 2026-05-05 18:37 | 39.48441 | 34.89769 | 33014 ft | 518 kts | 108° |
| 2026-05-05 18:37 | 39.45892 | 34.98540 | 33027 ft | 519 kts | 108° |
| 2026-05-05 18:38 | 39.43367 | 35.07225 | 33005 ft | 518 kts | 108° |
| 2026-05-05 18:38 | 39.40845 | 35.15919 | 33030 ft | 519 kts | 108° |
| 2026-05-05 18:39 | 39.38314 | 35.24656 | 33016 ft | 518 kts | 108° |
| 2026-05-05 18:39 | 39.35737 | 35.33328 | 33012 ft | 519 kts | 109° |
| 2026-05-05 18:40 | 39.33156 | 35.42006 | 33021 ft | 517 kts | 109° |
| 2026-05-05 18:40 | 39.30596 | 35.50710 | 33023 ft | 517 kts | 109° |
| 2026-05-05 18:41 | 39.28063 | 35.59331 | 33010 ft | 519 kts | 109° |
| 2026-05-05 18:41 | 39.25502 | 35.68044 | 32993 ft | 519 kts | 109° |
| 2026-05-05 18:42 | 39.22967 | 35.76726 | 32971 ft | 517 kts | 109° |
| 2026-05-05 18:42 | 39.20445 | 35.85369 | 33001 ft | 518 kts | 109° |
| 2026-05-05 18:43 | 39.17915 | 35.94059 | 32999 ft | 518 kts | 109° |
| 2026-05-05 18:43 | 39.15968 | 36.01300 | 32986 ft | 514 kts | 105° |
| 2026-05-05 18:44 | 39.14434 | 36.10259 | 33039 ft | 516 kts | 98° |
| 2026-05-05 18:44 | 39.13076 | 36.20955 | 33017 ft | 514 kts | 98° |
| 2026-05-05 18:45 | 39.11871 | 36.29997 | 33018 ft | 515 kts | 98° |
| 2026-05-05 18:45 | 39.10853 | 36.37541 | 33011 ft | 516 kts | 99° |
| 2026-05-05 18:46 | 39.09423 | 36.48165 | 33008 ft | 515 kts | 99° |
| 2026-05-05 18:46 | 39.08220 | 36.57184 | 33021 ft | 515 kts | 99° |
| 2026-05-05 18:47 | 39.07024 | 36.66212 | 33010 ft | 513 kts | 99° |
| 2026-05-05 18:47 | 39.05835 | 36.75266 | 33001 ft | 513 kts | 99° |
| 2026-05-05 18:48 | 39.04665 | 36.84250 | 33019 ft | 513 kts | 99° |
| 2026-05-05 18:48 | 39.03506 | 36.93285 | 33007 ft | 512 kts | 99° |
| 2026-05-05 18:49 | 39.02355 | 37.02281 | 33006 ft | 512 kts | 99° |
| 2026-05-05 18:49 | 39.01205 | 37.11324 | 33022 ft | 513 kts | 99° |
| 2026-05-05 18:50 | 39.00037 | 37.20316 | 33011 ft | 512 kts | 100° |
| 2026-05-05 18:50 | 38.98735 | 37.29283 | 33031 ft | 513 kts | 101° |
| 2026-05-05 18:51 | 38.97432 | 37.38211 | 33024 ft | 510 kts | 101° |
| 2026-05-05 18:51 | 38.96144 | 37.47164 | 33022 ft | 511 kts | 101° |
| 2026-05-05 18:52 | 38.94873 | 37.56105 | 33042 ft | 510 kts | 101° |
| 2026-05-05 18:52 | 38.93608 | 37.65071 | 33027 ft | 510 kts | 101° |
| 2026-05-05 18:53 | 38.92359 | 37.73974 | 33044 ft | 510 kts | 101° |
| 2026-05-05 18:53 | 38.91318 | 37.81430 | 33040 ft | 508 kts | 101° |
| 2026-05-05 18:54 | 38.89884 | 37.91761 | 33033 ft | 506 kts | 101° |
| 2026-05-05 18:54 | 38.88656 | 38.00658 | 33042 ft | 507 kts | 101° |
| 2026-05-05 18:55 | 38.87637 | 38.08075 | 33038 ft | 507 kts | 101° |
| 2026-05-05 18:55 | 38.86216 | 38.18486 | 33057 ft | 509 kts | 101° |
| 2026-05-05 18:56 | 38.85175 | 38.25898 | 33058 ft | 507 kts | 102° |
| 2026-05-05 18:56 | 38.83598 | 38.36195 | 33048 ft | 507 kts | 102° |
| 2026-05-05 18:57 | 38.82262 | 38.45025 | 33050 ft | 506 kts | 102° |
| 2026-05-05 18:57 | 38.80956 | 38.53868 | 33029 ft | 507 kts | 102° |
| 2026-05-05 18:58 | 38.79636 | 38.62745 | 33042 ft | 508 kts | 102° |
| 2026-05-05 18:58 | 38.78326 | 38.71620 | 33008 ft | 507 kts | 102° |
| 2026-05-05 18:59 | 38.77035 | 38.80454 | 33022 ft | 508 kts | 102° |
| 2026-05-05 18:59 | 38.75732 | 38.89376 | 33024 ft | 507 kts | 102° |
| 2026-05-05 19:00 | 38.74419 | 38.98151 | 33010 ft | 506 kts | 103° |
| 2026-05-05 19:00 | 38.73087 | 39.07011 | 33027 ft | 508 kts | 103° |
| 2026-05-05 19:01 | 38.71790 | 39.15871 | 33018 ft | 509 kts | 103° |
| 2026-05-05 19:01 | 38.70085 | 39.24646 | 33023 ft | 506 kts | 110° |
| 2026-05-05 19:02 | 38.67691 | 39.33135 | 33029 ft | 506 kts | 113° |
| 2026-05-05 19:02 | 38.65210 | 39.41536 | 33020 ft | 506 kts | 112° |
| 2026-05-05 19:03 | 38.62775 | 39.49935 | 33005 ft | 505 kts | 112° |
| 2026-05-05 19:03 | 38.60309 | 39.58306 | 33022 ft | 505 kts | 113° |
| 2026-05-05 19:04 | 38.57809 | 39.66681 | 33007 ft | 506 kts | 114° |
| 2026-05-05 19:04 | 38.55318 | 39.75132 | 32992 ft | 507 kts | 114° |
| 2026-05-05 19:05 | 38.52848 | 39.83540 | 32996 ft | 507 kts | 114° |
| 2026-05-05 19:05 | 38.50385 | 39.91910 | 32988 ft | 505 kts | 114° |
| 2026-05-05 19:06 | 38.47925 | 40.00318 | 32997 ft | 508 kts | 114° |
| 2026-05-05 19:06 | 38.45478 | 40.08709 | 32975 ft | 507 kts | 114° |
| 2026-05-05 19:07 | 38.43420 | 40.15754 | 32993 ft | 507 kts | 114° |
| 2026-05-05 19:07 | 38.40579 | 40.25535 | 32984 ft | 508 kts | 114° |
| 2026-05-05 19:08 | 38.38143 | 40.33940 | 32983 ft | 509 kts | 114° |
| 2026-05-05 19:08 | 38.35703 | 40.42370 | 32985 ft | 509 kts | 114° |
| 2026-05-05 19:09 | 38.33263 | 40.50835 | 32975 ft | 509 kts | 114° |
| 2026-05-05 19:09 | 38.30779 | 40.59213 | 32978 ft | 508 kts | 115° |
| 2026-05-05 19:10 | 38.28222 | 40.67640 | 32985 ft | 511 kts | 115° |
| 2026-05-05 19:10 | 38.25737 | 40.76008 | 32963 ft | 509 kts | 115° |
| 2026-05-05 19:11 | 38.23655 | 40.82994 | 32961 ft | 509 kts | 116° |
| 2026-05-05 19:11 | 38.20573 | 40.92726 | 32970 ft | 510 kts | 117° |
| 2026-05-05 19:12 | 38.17949 | 41.01112 | 32965 ft | 511 kts | 116° |
| 2026-05-05 19:12 | 38.15810 | 41.08097 | 32971 ft | 511 kts | 116° |
| 2026-05-05 19:13 | 38.12780 | 41.17859 | 32967 ft | 511 kts | 117° |
| 2026-05-05 19:13 | 38.10158 | 41.26202 | 32969 ft | 512 kts | 117° |
| 2026-05-05 19:14 | 38.07565 | 41.34660 | 32955 ft | 512 kts | 116° |
| 2026-05-05 19:14 | 38.05011 | 41.43092 | 32986 ft | 514 kts | 116° |
| 2026-05-05 19:15 | 38.02456 | 41.51503 | 32958 ft | 513 kts | 116° |
| 2026-05-05 19:15 | 37.99839 | 41.59892 | 32968 ft | 512 kts | 117° |
| 2026-05-05 19:16 | 37.97192 | 41.68241 | 32980 ft | 512 kts | 117° |
| 2026-05-05 19:16 | 37.94615 | 41.76610 | 32952 ft | 510 kts | 117° |
| 2026-05-05 19:17 | 37.92152 | 41.85004 | 32961 ft | 516 kts | 113° |
| 2026-05-05 19:17 | 37.90691 | 41.93966 | 32978 ft | 526 kts | 101° |
| 2026-05-05 19:18 | 37.90117 | 42.03150 | 32999 ft | 529 kts | 99° |
| 2026-05-05 19:18 | 37.89563 | 42.12447 | 32976 ft | 528 kts | 100° |
| 2026-05-05 19:19 | 37.88924 | 42.21664 | 33008 ft | 527 kts | 101° |
| 2026-05-05 19:19 | 37.88247 | 42.30872 | 32987 ft | 526 kts | 101° |
| 2026-05-05 19:20 | 37.87602 | 42.40073 | 33031 ft | 527 kts | 101° |
| 2026-05-05 19:20 | 37.86985 | 42.49329 | 32996 ft | 526 kts | 100° |
| 2026-05-05 19:21 | 37.86386 | 42.58583 | 33027 ft | 529 kts | 101° |
| 2026-05-05 19:21 | 37.84914 | 42.67476 | 32990 ft | 510 kts | 118° |
| 2026-05-05 19:22 | 37.81685 | 42.75309 | 33074 ft | 498 kts | 129° |
| 2026-05-05 19:22 | 37.77959 | 42.82633 | 33002 ft | 497 kts | 130° |
| 2026-05-05 19:23 | 37.74263 | 42.90025 | 33028 ft | 499 kts | 129° |
| 2026-05-05 19:23 | 37.70645 | 42.97498 | 33021 ft | 499 kts | 129° |
| 2026-05-05 19:24 | 37.67034 | 43.04932 | 33031 ft | 496 kts | 129° |
| 2026-05-05 19:24 | 37.63370 | 43.12441 | 33032 ft | 499 kts | 129° |
| 2026-05-05 19:25 | 37.59756 | 43.19929 | 33024 ft | 501 kts | 129° |
| 2026-05-05 19:25 | 37.56142 | 43.27387 | 33027 ft | 500 kts | 129° |
| 2026-05-05 19:26 | 37.52507 | 43.34891 | 33015 ft | 502 kts | 129° |
| 2026-05-05 19:26 | 37.48864 | 43.42449 | 33038 ft | 503 kts | 128° |
| 2026-05-05 19:27 | 37.45261 | 43.49929 | 33016 ft | 500 kts | 129° |
| 2026-05-05 19:27 | 37.41643 | 43.57423 | 33027 ft | 503 kts | 128° |
| 2026-05-05 19:28 | 37.38023 | 43.64936 | 33032 ft | 503 kts | 129° |
| 2026-05-05 19:28 | 37.34324 | 43.72372 | 33005 ft | 503 kts | 130° |
| 2026-05-05 19:29 | 37.30654 | 43.79811 | 33034 ft | 502 kts | 130° |
| 2026-05-05 19:29 | 37.26975 | 43.87277 | 33017 ft | 501 kts | 132° |
| 2026-05-05 19:30 | 37.22566 | 43.93747 | 33045 ft | 485 kts | 147° |
| 2026-05-05 19:30 | 37.17103 | 43.98378 | 33044 ft | 468 kts | 160° |
| 2026-05-05 19:31 | 37.11346 | 44.02135 | 33015 ft | 467 kts | 161° |
| 2026-05-05 19:31 | 37.05545 | 44.05963 | 33011 ft | 471 kts | 160° |
| 2026-05-05 19:32 | 36.99795 | 44.09869 | 33014 ft | 470 kts | 160° |
| 2026-05-05 19:32 | 36.94089 | 44.13739 | 32991 ft | 469 kts | 160° |
| 2026-05-05 19:33 | 36.88315 | 44.17628 | 33026 ft | 470 kts | 160° |
| 2026-05-05 19:33 | 36.82574 | 44.21508 | 33027 ft | 471 kts | 160° |
| 2026-05-05 19:34 | 36.76863 | 44.25375 | 33000 ft | 469 kts | 160° |
| 2026-05-05 19:35 | 36.68221 | 44.31210 | 33007 ft | 471 kts | 160° |
| 2026-05-05 19:35 | 36.62493 | 44.35085 | 32980 ft | 470 kts | 160° |
| 2026-05-05 19:36 | 36.56701 | 44.39001 | 33025 ft | 473 kts | 160° |
| 2026-05-05 19:36 | 36.50927 | 44.42909 | 32986 ft | 472 kts | 160° |
| 2026-05-05 19:37 | 36.45142 | 44.46822 | 33025 ft | 473 kts | 160° |
| 2026-05-05 19:37 | 36.39370 | 44.50656 | 32999 ft | 472 kts | 161° |
| 2026-05-05 19:38 | 36.33570 | 44.54460 | 33013 ft | 472 kts | 161° |
| 2026-05-05 19:38 | 36.27787 | 44.58299 | 32996 ft | 473 kts | 161° |
| 2026-05-05 19:39 | 36.21967 | 44.62141 | 32995 ft | 473 kts | 161° |
| 2026-05-05 19:39 | 36.16149 | 44.65982 | 32974 ft | 474 kts | 162° |
| 2026-05-05 19:40 | 36.10370 | 44.69809 | 32936 ft | 470 kts | 162° |
| 2026-05-05 19:40 | 36.04589 | 44.73627 | 32987 ft | 475 kts | 162° |
| 2026-05-05 19:41 | 35.98758 | 44.77490 | 32949 ft | 474 kts | 162° |
| 2026-05-05 19:41 | 35.92998 | 44.81299 | 32963 ft | 473 kts | 162° |
| 2026-05-05 19:42 | 35.87162 | 44.85154 | 32989 ft | 477 kts | 162° |
| 2026-05-05 19:42 | 35.81325 | 44.89043 | 32985 ft | 477 kts | 162° |
| 2026-05-05 19:43 | 35.75500 | 44.92874 | 32977 ft | 472 kts | 162° |
| 2026-05-05 19:43 | 35.69682 | 44.96708 | 32990 ft | 477 kts | 162° |
| 2026-05-05 19:44 | 35.63844 | 45.00494 | 32971 ft | 476 kts | 163° |
| 2026-05-05 19:44 | 35.57972 | 45.04267 | 32988 ft | 476 kts | 163° |
| 2026-05-05 19:45 | 35.52124 | 45.08071 | 32965 ft | 477 kts | 163° |
| 2026-05-05 19:45 | 35.46266 | 45.11861 | 32976 ft | 478 kts | 163° |
| 2026-05-05 19:46 | 35.40382 | 45.15665 | 32976 ft | 477 kts | 163° |
| 2026-05-05 19:46 | 35.34546 | 45.19445 | 32976 ft | 477 kts | 163° |
| 2026-05-05 19:47 | 35.28658 | 45.23259 | 32973 ft | 479 kts | 163° |
| 2026-05-05 19:47 | 35.22780 | 45.27064 | 32979 ft | 482 kts | 163° |
| 2026-05-05 19:48 | 35.16868 | 45.30899 | 32974 ft | 479 kts | 163° |
| 2026-05-05 19:48 | 35.10972 | 45.34718 | 32978 ft | 480 kts | 163° |
| 2026-05-05 19:49 | 35.05056 | 45.38549 | 32992 ft | 483 kts | 163° |
| 2026-05-05 19:49 | 34.99175 | 45.42370 | 32968 ft | 482 kts | 163° |
| 2026-05-05 19:50 | 34.93203 | 45.46187 | 32987 ft | 482 kts | 163° |
| 2026-05-05 19:50 | 34.87272 | 45.49916 | 32971 ft | 482 kts | 163° |
| 2026-05-05 19:51 | 34.81324 | 45.53696 | 32967 ft | 481 kts | 163° |
| 2026-05-05 19:51 | 34.75417 | 45.57452 | 32964 ft | 481 kts | 163° |
| 2026-05-05 19:52 | 34.69455 | 45.61218 | 32973 ft | 484 kts | 163° |
| 2026-05-05 19:52 | 34.63523 | 45.64993 | 32956 ft | 480 kts | 163° |
| 2026-05-05 19:53 | 34.57603 | 45.68742 | 32923 ft | 482 kts | 163° |
| 2026-05-05 19:53 | 34.51617 | 45.72539 | 32967 ft | 486 kts | 163° |
| 2026-05-05 19:54 | 34.45679 | 45.76321 | 32937 ft | 482 kts | 163° |
| 2026-05-05 19:54 | 34.39705 | 45.80094 | 32993 ft | 488 kts | 163° |
| 2026-05-05 19:55 | 34.33729 | 45.83904 | 32956 ft | 484 kts | 163° |
| 2026-05-05 19:55 | 34.27770 | 45.87684 | 32997 ft | 485 kts | 163° |
| 2026-05-05 19:56 | 34.21776 | 45.91475 | 32972 ft | 484 kts | 163° |
| 2026-05-05 19:56 | 34.15786 | 45.95177 | 32998 ft | 486 kts | 163° |
| 2026-05-05 19:57 | 34.09778 | 45.98907 | 32989 ft | 485 kts | 163° |
| 2026-05-05 19:57 | 34.03796 | 46.02639 | 33013 ft | 485 kts | 163° |
| 2026-05-05 19:58 | 33.97819 | 46.06345 | 33004 ft | 486 kts | 163° |
| 2026-05-05 19:58 | 33.91812 | 46.10080 | 33012 ft | 486 kts | 163° |
| 2026-05-05 19:59 | 33.85789 | 46.13829 | 33033 ft | 488 kts | 162° |
| 2026-05-05 19:59 | 33.79768 | 46.17572 | 33034 ft | 488 kts | 162° |
| 2026-05-05 20:00 | 33.73761 | 46.21312 | 33011 ft | 488 kts | 162° |
| 2026-05-05 20:00 | 33.67707 | 46.25076 | 33024 ft | 489 kts | 162° |
| 2026-05-05 20:01 | 33.61648 | 46.28849 | 33014 ft | 491 kts | 162° |
| 2026-05-05 20:01 | 33.55607 | 46.32613 | 33002 ft | 489 kts | 162° |
| 2026-05-05 20:02 | 33.49569 | 46.36364 | 33003 ft | 491 kts | 162° |
| 2026-05-05 20:02 | 33.43516 | 46.40057 | 33009 ft | 489 kts | 163° |
| 2026-05-05 20:03 | 33.37464 | 46.43723 | 33001 ft | 490 kts | 162° |
| 2026-05-05 20:03 | 33.31369 | 46.47457 | 33007 ft | 493 kts | 162° |
| 2026-05-05 20:04 | 33.25275 | 46.51174 | 32988 ft | 491 kts | 162° |
| 2026-05-05 20:04 | 33.19108 | 46.54917 | 33012 ft | 503 kts | 162° |
| 2026-05-05 20:05 | 33.12876 | 46.58738 | 32934 ft | 506 kts | 162° |
| 2026-05-05 20:05 | 33.06644 | 46.62544 | 32963 ft | 503 kts | 162° |
| 2026-05-05 20:06 | 33.00390 | 46.66337 | 32945 ft | 502 kts | 162° |
| 2026-05-05 20:06 | 32.94199 | 46.70133 | 32918 ft | 500 kts | 162° |
| 2026-05-05 20:07 | 32.87991 | 46.73917 | 32944 ft | 505 kts | 162° |
| 2026-05-05 20:07 | 32.81708 | 46.77754 | 32934 ft | 504 kts | 162° |
| 2026-05-05 20:08 | 32.75510 | 46.81541 | 32902 ft | 504 kts | 162° |
| 2026-05-05 20:08 | 32.69218 | 46.85298 | 32876 ft | 505 kts | 162° |
| 2026-05-05 20:09 | 32.62965 | 46.89024 | 32874 ft | 504 kts | 162° |
| 2026-05-05 20:09 | 32.56711 | 46.92780 | 32865 ft | 506 kts | 162° |
| 2026-05-05 20:10 | 32.50464 | 46.96664 | 32819 ft | 512 kts | 156° |
| 2026-05-05 20:10 | 32.47515 | 46.99172 | 32855 ft | 523 kts | 149° |
| 2026-05-05 20:10 | 32.44825 | 47.02119 | 32893 ft | 535 kts | 142° |
| 2026-05-05 20:11 | 32.39890 | 47.08730 | 32835 ft | 539 kts | 139° |
| 2026-05-05 20:11 | 32.34913 | 47.15399 | 32837 ft | 536 kts | 141° |
| 2026-05-05 20:12 | 32.29834 | 47.21838 | 32845 ft | 538 kts | 141° |
| 2026-05-05 20:12 | 32.24726 | 47.28236 | 32824 ft | 535 kts | 141° |
| 2026-05-05 20:13 | 32.19625 | 47.34659 | 32835 ft | 537 kts | 141° |
| 2026-05-05 20:13 | 32.14519 | 47.41106 | 32839 ft | 538 kts | 141° |
| 2026-05-05 20:14 | 32.09426 | 47.47528 | 32820 ft | 536 kts | 141° |
| 2026-05-05 20:14 | 32.04342 | 47.53936 | 32827 ft | 538 kts | 141° |
| 2026-05-05 20:15 | 31.99210 | 47.60424 | 32826 ft | 542 kts | 141° |
| 2026-05-05 20:15 | 31.94083 | 47.66913 | 32794 ft | 540 kts | 141° |
| 2026-05-05 20:16 | 31.88945 | 47.73367 | 32782 ft | 539 kts | 142° |
| 2026-05-05 20:16 | 31.83747 | 47.79734 | 32820 ft | 541 kts | 142° |
| 2026-05-05 20:17 | 31.78547 | 47.86136 | 32799 ft | 540 kts | 142° |
| 2026-05-05 20:17 | 31.73379 | 47.92530 | 32795 ft | 540 kts | 142° |
| 2026-05-05 20:18 | 31.68209 | 47.98901 | 32790 ft | 540 kts | 142° |
| 2026-05-05 20:18 | 31.63058 | 48.05266 | 32803 ft | 539 kts | 142° |
| 2026-05-05 20:19 | 31.57895 | 48.11654 | 32808 ft | 540 kts | 142° |
| 2026-05-05 20:19 | 31.52730 | 48.18037 | 32795 ft | 542 kts | 141° |
| 2026-05-05 20:20 | 31.47549 | 48.24457 | 32777 ft | 541 kts | 141° |
| 2026-05-05 20:20 | 31.42392 | 48.30839 | 32783 ft | 543 kts | 141° |
| 2026-05-05 20:21 | 31.37191 | 48.37289 | 32778 ft | 541 kts | 141° |
| 2026-05-05 20:21 | 31.32054 | 48.43639 | 32774 ft | 540 kts | 142° |
| 2026-05-05 20:22 | 31.26814 | 48.49939 | 32771 ft | 542 kts | 142° |
| 2026-05-05 20:22 | 31.21576 | 48.56265 | 32763 ft | 539 kts | 142° |
| 2026-05-05 20:23 | 31.16399 | 48.62552 | 32775 ft | 542 kts | 142° |
| 2026-05-05 20:23 | 31.11157 | 48.68889 | 32747 ft | 542 kts | 142° |
| 2026-05-05 20:24 | 31.05949 | 48.75206 | 32771 ft | 543 kts | 142° |
| 2026-05-05 20:24 | 31.00708 | 48.81565 | 32753 ft | 544 kts | 142° |
| 2026-05-05 20:25 | 30.95460 | 48.87937 | 32762 ft | 542 kts | 142° |
| 2026-05-05 20:25 | 30.90244 | 48.94265 | 32768 ft | 542 kts | 142° |
| 2026-05-05 20:26 | 30.85030 | 49.00606 | 32769 ft | 542 kts | 142° |
| 2026-05-05 20:26 | 30.79782 | 49.06983 | 32777 ft | 547 kts | 141° |
| 2026-05-05 20:27 | 30.74506 | 49.13396 | 32746 ft | 544 kts | 142° |
| 2026-05-05 20:27 | 30.69223 | 49.19642 | 32772 ft | 544 kts | 142° |
| 2026-05-05 20:28 | 30.63912 | 49.25921 | 32758 ft | 546 kts | 142° |
| 2026-05-05 20:28 | 30.58635 | 49.32224 | 32749 ft | 545 kts | 142° |
| 2026-05-05 20:29 | 30.53334 | 49.38510 | 32760 ft | 546 kts | 142° |
| 2026-05-05 20:29 | 30.48049 | 49.44797 | 32746 ft | 549 kts | 142° |
| 2026-05-05 20:30 | 30.42745 | 49.51131 | 32737 ft | 548 kts | 142° |
| 2026-05-05 20:30 | 30.37437 | 49.57442 | 32748 ft | 547 kts | 141° |
| 2026-05-05 20:31 | 30.32128 | 49.63773 | 32741 ft | 548 kts | 141° |
| 2026-05-05 20:31 | 30.26825 | 49.70113 | 32708 ft | 547 kts | 142° |
| 2026-05-05 20:32 | 30.21520 | 49.76429 | 32722 ft | 547 kts | 142° |
| 2026-05-05 20:32 | 30.16232 | 49.82727 | 32724 ft | 548 kts | 142° |
| 2026-05-05 20:33 | 30.10881 | 49.88946 | 32732 ft | 549 kts | 143° |
| 2026-05-05 20:33 | 30.05473 | 49.95233 | 32723 ft | 548 kts | 142° |
| 2026-05-05 20:34 | 30.00160 | 50.01460 | 32703 ft | 549 kts | 142° |
| 2026-05-05 20:34 | 29.94793 | 50.07721 | 32718 ft | 550 kts | 142° |
| 2026-05-05 20:35 | 29.89415 | 50.14004 | 32702 ft | 551 kts | 142° |
| 2026-05-05 20:35 | 29.84021 | 50.20320 | 32732 ft | 552 kts | 142° |
| 2026-05-05 20:36 | 29.78663 | 50.26591 | 32707 ft | 549 kts | 142° |
| 2026-05-05 20:36 | 29.73273 | 50.32896 | 32711 ft | 552 kts | 142° |
| 2026-05-05 20:37 | 29.67907 | 50.39194 | 32700 ft | 554 kts | 142° |
| 2026-05-05 20:37 | 29.62518 | 50.45509 | 32700 ft | 551 kts | 142° |
| 2026-05-05 20:38 | 29.57147 | 50.51765 | 32712 ft | 554 kts | 142° |
| 2026-05-05 20:38 | 29.51686 | 50.57989 | 32688 ft | 554 kts | 142° |
| 2026-05-05 20:39 | 29.46211 | 50.64267 | 32692 ft | 554 kts | 142° |
| 2026-05-05 20:39 | 29.40787 | 50.70510 | 32647 ft | 554 kts | 143° |
| 2026-05-05 20:40 | 29.35360 | 50.76725 | 32681 ft | 552 kts | 143° |
| 2026-05-05 20:40 | 29.29898 | 50.82998 | 32669 ft | 556 kts | 142° |
| 2026-05-05 20:41 | 29.24482 | 50.89240 | 32653 ft | 556 kts | 143° |
| 2026-05-05 20:41 | 29.19005 | 50.95524 | 32662 ft | 558 kts | 142° |
| 2026-05-05 20:42 | 29.13531 | 51.01830 | 32636 ft | 557 kts | 142° |
| 2026-05-05 20:42 | 29.08057 | 51.08134 | 32654 ft | 560 kts | 142° |
| 2026-05-05 20:43 | 29.02596 | 51.14423 | 32622 ft | 555 kts | 142° |
| 2026-05-05 20:43 | 28.97089 | 51.20699 | 32657 ft | 559 kts | 143° |
| 2026-05-05 20:44 | 28.91562 | 51.26886 | 32621 ft | 555 kts | 143° |
| 2026-05-05 20:44 | 28.86090 | 51.33068 | 32684 ft | 555 kts | 143° |
| 2026-05-05 20:45 | 28.77814 | 51.42410 | 32688 ft | 557 kts | 142° |
| 2026-05-05 20:45 | 28.72293 | 51.48636 | 32704 ft | 558 kts | 142° |
| 2026-05-05 20:46 | 28.66831 | 51.54824 | 32690 ft | 553 kts | 142° |
| 2026-05-05 20:46 | 28.61299 | 51.61059 | 32748 ft | 561 kts | 142° |
| 2026-05-05 20:47 | 28.55771 | 51.67327 | 32696 ft | 558 kts | 142° |
| 2026-05-05 20:47 | 28.50313 | 51.73506 | 32709 ft | 554 kts | 142° |
| 2026-05-05 20:48 | 28.44815 | 51.79710 | 32755 ft | 554 kts | 142° |
| 2026-05-05 20:48 | 28.39378 | 51.85860 | 32740 ft | 553 kts | 143° |
| 2026-05-05 20:49 | 28.33855 | 51.91944 | 32732 ft | 551 kts | 143° |
| 2026-05-05 20:49 | 28.28349 | 51.98033 | 32714 ft | 552 kts | 142° |
| 2026-05-05 20:50 | 28.23784 | 52.03125 | 32690 ft | 551 kts | 142° |
| 2026-05-05 20:50 | 28.17378 | 52.10220 | 32759 ft | 554 kts | 142° |
| 2026-05-05 20:51 | 28.11894 | 52.16314 | 32747 ft | 552 kts | 142° |
| 2026-05-05 20:51 | 28.06419 | 52.22410 | 32793 ft | 554 kts | 142° |
| 2026-05-05 20:52 | 28.00904 | 52.28530 | 32758 ft | 551 kts | 142° |
| 2026-05-05 20:52 | 27.95450 | 52.34602 | 32731 ft | 549 kts | 142° |
| 2026-05-05 20:53 | 27.89995 | 52.40671 | 32716 ft | 551 kts | 142° |
| 2026-05-05 20:53 | 27.84519 | 52.46772 | 32728 ft | 552 kts | 141° |
| 2026-05-05 20:54 | 27.79037 | 52.52832 | 32720 ft | 550 kts | 142° |
| 2026-05-05 20:54 | 27.73497 | 52.58828 | 32753 ft | 551 kts | 142° |
| 2026-05-05 20:55 | 27.68013 | 52.64822 | 32745 ft | 553 kts | 141° |
| 2026-05-05 20:55 | 27.62518 | 52.70841 | 32717 ft | 549 kts | 142° |
| 2026-05-05 20:56 | 27.57018 | 52.76824 | 32790 ft | 550 kts | 142° |
| 2026-05-05 20:56 | 27.51505 | 52.82863 | 32773 ft | 550 kts | 142° |
| 2026-05-05 20:57 | 27.46057 | 52.88826 | 32749 ft | 550 kts | 142° |
| 2026-05-05 20:57 | 27.40563 | 52.94820 | 32701 ft | 551 kts | 142° |
| 2026-05-05 20:58 | 27.35060 | 53.00856 | 32673 ft | 552 kts | 141° |
| 2026-05-05 20:58 | 27.29595 | 53.06842 | 32667 ft | 551 kts | 142° |
| 2026-05-05 20:59 | 27.24094 | 53.12859 | 32712 ft | 552 kts | 141° |
| 2026-05-05 20:59 | 27.18557 | 53.18872 | 32726 ft | 551 kts | 142° |
| 2026-05-05 21:00 | 27.13005 | 53.24789 | 32730 ft | 551 kts | 142° |
| 2026-05-05 21:00 | 27.07445 | 53.30772 | 32687 ft | 550 kts | 141° |
| 2026-05-05 21:01 | 27.01911 | 53.36739 | 32687 ft | 549 kts | 142° |
| 2026-05-05 21:01 | 26.96368 | 53.42677 | 32702 ft | 551 kts | 141° |
| 2026-05-05 21:02 | 26.90874 | 53.48604 | 32690 ft | 549 kts | 141° |
| 2026-05-05 21:02 | 26.85342 | 53.54558 | 32700 ft | 551 kts | 141° |
| 2026-05-05 21:03 | 26.79821 | 53.60498 | 32651 ft | 549 kts | 141° |
| 2026-05-05 21:03 | 26.74274 | 53.66479 | 32655 ft | 551 kts | 142° |
| 2026-05-05 21:04 | 26.68758 | 53.72427 | 32620 ft | 549 kts | 141° |
| 2026-05-05 21:04 | 26.63232 | 53.78383 | 32647 ft | 551 kts | 141° |
| 2026-05-05 21:05 | 26.57698 | 53.84269 | 32625 ft | 549 kts | 142° |
| 2026-05-05 21:05 | 26.52120 | 53.90128 | 32629 ft | 549 kts | 142° |
| 2026-05-05 21:06 | 26.46574 | 53.96020 | 32624 ft | 550 kts | 141° |
| 2026-05-05 21:06 | 26.41016 | 54.01908 | 32621 ft | 549 kts | 141° |
| 2026-05-05 21:07 | 26.35474 | 54.07762 | 32625 ft | 548 kts | 141° |
| 2026-05-05 21:07 | 26.29947 | 54.13633 | 32616 ft | 550 kts | 141° |
| 2026-05-05 21:08 | 26.24405 | 54.19505 | 32617 ft | 551 kts | 141° |
| 2026-05-05 21:08 | 26.18863 | 54.25381 | 32610 ft | 551 kts | 141° |
| 2026-05-05 21:09 | 26.13282 | 54.31308 | 32600 ft | 550 kts | 141° |
| 2026-05-05 21:09 | 26.07741 | 54.37187 | 32599 ft | 551 kts | 141° |
| 2026-05-05 21:10 | 26.02192 | 54.43082 | 32590 ft | 549 kts | 141° |
| 2026-05-05 21:10 | 25.96646 | 54.48911 | 32586 ft | 550 kts | 141° |
| 2026-05-05 21:11 | 25.91021 | 54.54740 | 32593 ft | 549 kts | 141° |
| 2026-05-05 21:11 | 25.85501 | 54.60537 | 32599 ft | 548 kts | 140° |
| 2026-05-05 21:12 | 25.79927 | 54.66381 | 32598 ft | 550 kts | 141° |
| 2026-05-05 21:12 | 25.74376 | 54.72178 | 32571 ft | 548 kts | 141° |
| 2026-05-05 21:13 | 25.69443 | 54.77353 | 32614 ft | 549 kts | 141° |
| 2026-05-05 21:13 | 25.63920 | 54.83152 | 32366 ft | 548 kts | 140° |
| 2026-05-05 21:14 | 25.61302 | 54.86290 | 31391 ft | 563 kts | 132° |
| 2026-05-05 21:14 | 25.58999 | 54.89869 | 30967 ft | 561 kts | 124° |
| 2026-05-05 21:14 | 25.57169 | 54.93650 | 30787 ft | 560 kts | 116° |
| 2026-05-05 21:14 | 25.55732 | 54.97647 | 29809 ft | 564 kts | 110° |
| 2026-05-05 21:15 | 25.54510 | 55.01690 | 29183 ft | 553 kts | 110° |
| 2026-05-05 21:15 | 25.53102 | 55.05605 | 28534 ft | 545 kts | 116° |
| 2026-05-05 21:15 | 25.51412 | 55.09357 | 27713 ft | 541 kts | 119° |
| 2026-05-05 21:15 | 25.49619 | 55.12932 | 26785 ft | 539 kts | 121° |
| 2026-05-05 21:16 | 25.47757 | 55.16499 | 25940 ft | 535 kts | 121° |
| 2026-05-05 21:16 | 25.45819 | 55.20015 | 25028 ft | 531 kts | 125° |
| 2026-05-05 21:16 | 25.43583 | 55.23187 | 24183 ft | 525 kts | 132° |
| 2026-05-05 21:16 | 25.41123 | 55.26180 | 23310 ft | 520 kts | 134° |
| 2026-05-05 21:17 | 25.38679 | 55.29037 | 22444 ft | 515 kts | 134° |
| 2026-05-05 21:17 | 25.36089 | 55.31747 | 21573 ft | 507 kts | 141° |
| 2026-05-05 21:17 | 25.33247 | 55.34033 | 20721 ft | 500 kts | 149° |
| 2026-05-05 21:17 | 25.30277 | 55.35897 | 19884 ft | 494 kts | 152° |
| 2026-05-05 21:18 | 25.27257 | 55.37623 | 19041 ft | 488 kts | 152° |
| 2026-05-05 21:18 | 25.24205 | 55.39238 | 18199 ft | 481 kts | 161° |
| 2026-05-05 21:18 | 25.20990 | 55.39788 | 18068 ft | 453 kts | 182° |
| 2026-05-05 21:18 | 25.18016 | 55.39233 | 18021 ft | 420 kts | 198° |
| 2026-05-05 21:19 | 25.15465 | 55.37889 | 17670 ft | 392 kts | 216° |
| 2026-05-05 21:19 | 25.13565 | 55.35902 | 17137 ft | 369 kts | 236° |
| 2026-05-05 21:19 | 25.12471 | 55.33470 | 16570 ft | 347 kts | 257° |
| 2026-05-05 21:19 | 25.12210 | 55.30876 | 15437 ft | 347 kts | 277° |
| 2026-05-05 21:20 | 25.12809 | 55.28343 | 13952 ft | 352 kts | 300° |
| 2026-05-05 21:20 | 25.14263 | 55.26230 | 12702 ft | 347 kts | 322° |
| 2026-05-05 21:20 | 25.16295 | 55.24884 | 11603 ft | 339 kts | 340° |
| 2026-05-05 21:20 | 25.18537 | 55.24137 | 10482 ft | 337 kts | 348° |
| 2026-05-05 21:21 | 25.20817 | 55.23697 | 9406 ft | 336 kts | 352° |
| 2026-05-05 21:21 | 25.23116 | 55.23407 | 8463 ft | 329 kts | 354° |
| 2026-05-05 21:21 | 25.25341 | 55.23200 | 7632 ft | 321 kts | 355° |
| 2026-05-05 21:21 | 25.27542 | 55.23024 | 6817 ft | 313 kts | 355° |
| 2026-05-05 21:22 | 25.29710 | 55.22858 | 5934 ft | 309 kts | 355° |
| 2026-05-05 21:22 | 25.31818 | 55.22690 | 5036 ft | 306 kts | 356° |
| 2026-05-05 21:22 | 25.33933 | 55.22499 | 4214 ft | 301 kts | 355° |
| 2026-05-05 21:22 | 25.35986 | 55.22292 | 3348 ft | 300 kts | 355° |
| 2026-05-05 21:23 | 25.38064 | 55.22055 | 2840 ft | 296 kts | 355° |
| 2026-05-05 21:23 | 25.40105 | 55.21805 | 2752 ft | 299 kts | 355° |
| 2026-05-05 21:23 | 25.42213 | 55.21540 | 2732 ft | 301 kts | 355° |
| 2026-05-05 21:23 | 25.44274 | 55.21273 | 2681 ft | 299 kts | 355° |
| 2026-05-05 21:24 | 25.46344 | 55.21004 | 2688 ft | 300 kts | 355° |
| 2026-05-05 21:24 | 25.47291 | 55.20881 | 2701 ft | 300 kts | 355° |